sensor_id;sensor_type;location;lat;lon;timestamp;pressure;altitude;pressure_sealevel;temperature;humidity
67697;BME280;54486;51.442;6.778;2023-02-19T00:02:14;101598.91;;;10.42;100.00
67697;BME280;54486;51.442;6.778;2023-02-19T00:04:44;101591.09;;;10.43;100.00
67697;BME280;54486;51.442;6.778;2023-02-19T00:07:13;101592.84;;;10.44;100.00
67697;BME280;54486;51.442;6.778;2023-02-19T00:09:43;101591.97;;;10.44;100.00
67697;BME280;54486;51.442;6.778;2023-02-19T00:12:10;101598.91;;;10.39;100.00
67697;BME280;54486;51.442;6.778;2023-02-19T00:14:37;101593.66;;;10.36;100.00
67697;BME280;54486;51.442;6.778;2023-02-19T00:17:04;101581.50;;;10.38;100.00
67697;BME280;54486;51.442;6.778;2023-02-19T00:19:31;101586.69;;;10.35;100.00
67697;BME280;54486;51.442;6.778;2023-02-19T00:21:58;101581.47;;;10.35;100.00
67697;BME280;54486;51.442;6.778;2023-02-19T00:24:25;101581.47;;;10.35;100.00
67697;BME280;54486;51.442;6.778;2023-02-19T00:26:52;101578.00;;;10.33;100.00
67697;BME280;54486;51.442;6.778;2023-02-19T00:29:20;101580.56;;;10.31;100.00
67697;BME280;54486;51.442;6.778;2023-02-19T00:31:47;101573.59;;;10.29;100.00
67697;BME280;54486;51.442;6.778;2023-02-19T00:34:15;101576.22;;;10.29;100.00
67697;BME280;54486;51.442;6.778;2023-02-19T00:36:42;101564.03;;;10.28;100.00
67697;BME280;54486;51.442;6.778;2023-02-19T00:39:11;101571.88;;;10.26;100.00
67697;BME280;54486;51.442;6.778;2023-02-19T00:41:39;101572.72;;;10.24;100.00
67697;BME280;54486;51.442;6.778;2023-02-19T00:44:06;101565.75;;;10.23;100.00
67697;BME280;54486;51.442;6.778;2023-02-19T00:46:35;101564.88;;;10.21;100.00
67697;BME280;54486;51.442;6.778;2023-02-19T00:49:03;101557.06;;;10.24;100.00
67697;BME280;54486;51.442;6.778;2023-02-19T00:51:32;101562.31;;;10.30;100.00
67697;BME280;54486;51.442;6.778;2023-02-19T00:53:59;101557.97;;;10.27;100.00
67697;BME280;54486;51.442;6.778;2023-02-19T00:56:27;101563.16;;;10.24;100.00
67697;BME280;54486;51.442;6.778;2023-02-19T00:58:54;101555.38;;;10.32;100.00
67697;BME280;54486;51.442;6.778;2023-02-19T01:01:22;101560.56;;;10.26;100.00
67697;BME280;54486;51.442;6.778;2023-02-19T01:03:50;101562.28;;;10.25;100.00
67697;BME280;54486;51.442;6.778;2023-02-19T01:06:18;101557.06;;;10.24;100.00
67697;BME280;54486;51.442;6.778;2023-02-19T01:08:46;101562.28;;;10.24;100.00
67697;BME280;54486;51.442;6.778;2023-02-19T01:11:13;101560.56;;;10.29;100.00
67697;BME280;54486;51.442;6.778;2023-02-19T01:13:40;101560.56;;;10.26;100.00
67697;BME280;54486;51.442;6.778;2023-02-19T01:16:12;101557.97;;;10.29;100.00
67697;BME280;54486;51.442;6.778;2023-02-19T01:18:39;101558.78;;;10.25;100.00
67697;BME280;54486;51.442;6.778;2023-02-19T01:21:12;101556.22;;;10.26;100.00
67697;BME280;54486;51.442;6.778;2023-02-19T01:23:41;101555.34;;;10.26;100.00
67697;BME280;54486;51.442;6.778;2023-02-19T01:26:10;101558.81;;;10.28;100.00
67697;BME280;54486;51.442;6.778;2023-02-19T01:28:38;101563.16;;;10.24;100.00
67697;BME280;54486;51.442;6.778;2023-02-19T01:31:06;101558.75;;;10.19;100.00
67697;BME280;54486;51.442;6.778;2023-02-19T01:33:34;101560.50;;;10.20;100.00
67697;BME280;54486;51.442;6.778;2023-02-19T01:36:02;101547.47;;;10.21;100.00
67697;BME280;54486;51.442;6.778;2023-02-19T01:38:29;101561.38;;;10.20;100.00
67697;BME280;54486;51.442;6.778;2023-02-19T01:40:57;101555.28;;;10.21;100.00
67697;BME280;54486;51.442;6.778;2023-02-19T01:43:25;101560.53;;;10.23;100.00
67697;BME280;54486;51.442;6.778;2023-02-19T01:45:52;101562.31;;;10.30;100.00
67697;BME280;54486;51.442;6.778;2023-02-19T01:48:20;101564.88;;;10.22;100.00
67697;BME280;54486;51.442;6.778;2023-02-19T01:50:53;101562.31;;;10.27;100.00
67697;BME280;54486;51.442;6.778;2023-02-19T01:53:22;101560.47;;;10.14;100.00
67697;BME280;54486;51.442;6.778;2023-02-19T01:55:51;101553.47;;;10.13;100.00
67697;BME280;54486;51.442;6.778;2023-02-19T01:58:22;101563.97;;;10.19;100.00
67697;BME280;54486;51.442;6.778;2023-02-19T02:00:50;101563.13;;;10.21;100.00
67697;BME280;54486;51.442;6.778;2023-02-19T02:03:19;101560.50;;;10.20;100.00
67697;BME280;54486;51.442;6.778;2023-02-19T02:08:20;101563.13;;;10.21;100.00
67697;BME280;54486;51.442;6.778;2023-02-19T02:11:06;101565.75;;;10.23;100.00
67697;BME280;54486;51.442;6.778;2023-02-19T02:13:33;101560.56;;;10.26;100.00
67697;BME280;54486;51.442;6.778;2023-02-19T02:29:29;101571.88;;;10.26;100.00
67697;BME280;54486;51.442;6.778;2023-02-19T02:34:35;101573.59;;;10.24;100.00
67697;BME280;54486;51.442;6.778;2023-02-19T02:37:05;101572.72;;;10.24;100.00
67697;BME280;54486;51.442;6.778;2023-02-19T02:39:33;101570.97;;;10.23;100.00
67697;BME280;54486;51.442;6.778;2023-02-19T02:42:10;101564.88;;;10.25;100.00
67697;BME280;54486;51.442;6.778;2023-02-19T02:44:56;101568.34;;;10.20;100.00
67697;BME280;54486;51.442;6.778;2023-02-19T02:47:45;101576.19;;;10.23;100.00
67697;BME280;54486;51.442;6.778;2023-02-19T02:52:49;101562.28;;;10.21;100.00
67697;BME280;54486;51.442;6.778;2023-02-19T02:55:41;101576.19;;;10.26;100.00
67697;BME280;54486;51.442;6.778;2023-02-19T02:58:09;101579.66;;;10.25;100.00
67697;BME280;54486;51.442;6.778;2023-02-19T03:00:38;101572.72;;;10.24;100.00
67697;BME280;54486;51.442;6.778;2023-02-19T03:03:26;101572.75;;;10.27;100.00
67697;BME280;54486;51.442;6.778;2023-02-19T03:05:56;101577.03;;;10.22;100.00
67697;BME280;54486;51.442;6.778;2023-02-19T03:08:26;101583.19;;;10.30;100.00
67697;BME280;54486;51.442;6.778;2023-02-19T03:11:03;101575.31;;;10.25;100.00
67697;BME280;54486;51.442;6.778;2023-02-19T03:14:34;101587.50;;;10.26;100.00
67697;BME280;54486;51.442;6.778;2023-02-19T03:17:03;101586.66;;;10.29;100.00
67697;BME280;54486;51.442;6.778;2023-02-19T03:19:51;101588.38;;;10.24;100.00
67697;BME280;54486;51.442;6.778;2023-02-19T03:22:21;101597.09;;;10.29;100.00
67697;BME280;54486;51.442;6.778;2023-02-19T03:24:53;101597.91;;;10.20;100.00
67697;BME280;54486;51.442;6.778;2023-02-19T03:27:40;101590.09;;;10.25;100.00
67697;BME280;54486;51.442;6.778;2023-02-19T03:30:13;101604.00;;;10.21;100.00
67697;BME280;54486;51.442;6.778;2023-02-19T03:33:17;101601.38;;;10.21;100.00
67697;BME280;54486;51.442;6.778;2023-02-19T03:35:40;101614.44;;;10.21;100.00
67697;BME280;54486;51.442;6.778;2023-02-19T03:40:42;101610.97;;;10.28;100.00
67697;BME280;54486;51.442;6.778;2023-02-19T03:43:15;101616.16;;;10.22;100.00
67697;BME280;54486;51.442;6.778;2023-02-19T03:45:48;101609.22;;;10.21;100.00
67697;BME280;54486;51.442;6.778;2023-02-19T03:48:21;101607.47;;;10.20;100.00
67697;BME280;54486;51.442;6.778;2023-02-19T03:51:17;101615.28;;;10.21;100.00
67697;BME280;54486;51.442;6.778;2023-02-19T03:56:13;101623.06;;;10.14;100.00
67697;BME280;54486;51.442;6.778;2023-02-19T04:04:12;101635.13;;;10.05;100.00
67697;BME280;54486;51.442;6.778;2023-02-19T04:06:41;101635.09;;;10.02;100.00
67697;BME280;54486;51.442;6.778;2023-02-19T04:09:16;101634.25;;;10.03;100.00
67697;BME280;54486;51.442;6.778;2023-02-19T04:11:45;101634.22;;;10.02;100.00
67697;BME280;54486;51.442;6.778;2023-02-19T04:14:56;101650.75;;;10.05;100.00
67697;BME280;54486;51.442;6.778;2023-02-19T04:17:05;101654.22;;;10.01;100.00
67697;BME280;54486;51.442;6.778;2023-02-19T04:19:34;101662.91;;;10.00;100.00
67697;BME280;54486;51.442;6.778;2023-02-19T04:22:04;101666.34;;;9.98;100.00
67697;BME280;54486;51.442;6.778;2023-02-19T04:24:43;101668.13;;;10.03;100.00
67697;BME280;54486;51.442;6.778;2023-02-19T04:27:13;101672.38;;;9.92;100.00
67697;BME280;54486;51.442;6.778;2023-02-19T04:29:39;101673.28;;;9.94;100.00
67697;BME280;54486;51.442;6.778;2023-02-19T04:32:08;101671.59;;;10.02;100.00
67697;BME280;54486;51.442;6.778;2023-02-19T04:34:35;101679.38;;;9.95;100.00
67697;BME280;54486;51.442;6.778;2023-02-19T04:37:01;101687.13;;;9.90;100.00
67697;BME280;54486;51.442;6.778;2023-02-19T04:39:29;101686.19;;;9.84;100.00
67697;BME280;54486;51.442;6.778;2023-02-19T04:41:56;101687.06;;;9.84;100.00
67697;BME280;54486;51.442;6.778;2023-02-19T04:44:25;101688.78;;;9.79;100.00
67697;BME280;54486;51.442;6.778;2023-02-19T04:46:52;101688.88;;;9.91;100.00
67697;BME280;54486;51.442;6.778;2023-02-19T04:49:19;101694.03;;;9.85;100.00
67697;BME280;54486;51.442;6.778;2023-02-19T04:51:47;101697.50;;;9.84;100.00
67697;BME280;54486;51.442;6.778;2023-02-19T04:54:14;101694.00;;;9.82;100.00
67697;BME280;54486;51.442;6.778;2023-02-19T04:56:40;101701.78;;;9.78;100.00
67697;BME280;54486;51.442;6.778;2023-02-19T04:59:07;101700.09;;;9.84;100.00
67697;BME280;54486;51.442;6.778;2023-02-19T05:01:34;101701.78;;;9.78;100.00
67697;BME280;54486;51.442;6.778;2023-02-19T05:04:04;101704.38;;;9.76;100.00
67697;BME280;54486;51.442;6.778;2023-02-19T05:06:31;101706.13;;;9.80;100.00
67697;BME280;54486;51.442;6.778;2023-02-19T05:08:58;101709.63;;;9.79;100.00
67697;BME280;54486;51.442;6.778;2023-02-19T05:11:25;101714.81;;;9.78;100.00
67697;BME280;54486;51.442;6.778;2023-02-19T05:13:53;101726.13;;;9.81;100.00
67697;BME280;54486;51.442;6.778;2023-02-19T05:16:20;101718.34;;;9.84;100.00
67697;BME280;54486;51.442;6.778;2023-02-19T05:18:47;101728.81;;;9.87;100.00
67697;BME280;54486;51.442;6.778;2023-02-19T05:21:15;101727.88;;;9.81;100.00
67697;BME280;54486;51.442;6.778;2023-02-19T05:23:42;101732.22;;;9.83;100.00
67697;BME280;54486;51.442;6.778;2023-02-19T05:26:11;101735.81;;;9.91;100.00
67697;BME280;54486;51.442;6.778;2023-02-19T05:28:40;101744.44;;;9.87;100.00
67697;BME280;54486;51.442;6.778;2023-02-19T05:31:07;101748.78;;;9.87;100.00
67697;BME280;54486;51.442;6.778;2023-02-19T05:33:35;101746.19;;;9.85;100.00
67697;BME280;54486;51.442;6.778;2023-02-19T05:36:07;101747.88;;;9.83;100.00
67697;BME280;54486;51.442;6.778;2023-02-19T05:38:37;101752.22;;;9.83;100.00
67697;BME280;54486;51.442;6.778;2023-02-19T05:41:05;101755.69;;;9.83;100.00
67697;BME280;54486;51.442;6.778;2023-02-19T05:43:32;101763.50;;;9.83;100.00
67697;BME280;54486;51.442;6.778;2023-02-19T05:45:59;101765.19;;;9.78;100.00
67697;BME280;54486;51.442;6.778;2023-02-19T05:48:26;101764.34;;;9.79;100.00
67697;BME280;54486;51.442;6.778;2023-02-19T05:50:53;101757.38;;;9.80;100.00
67697;BME280;54486;51.442;6.778;2023-02-19T05:53:21;101765.09;;;9.69;100.00
67697;BME280;54486;51.442;6.778;2023-02-19T05:55:47;101759.81;;;9.63;100.00
67697;BME280;54486;51.442;6.778;2023-02-19T05:58:14;101770.28;;;9.66;100.00
67697;BME280;54486;51.442;6.778;2023-02-19T06:00:41;101775.44;;;9.63;100.00
67697;BME280;54486;51.442;6.778;2023-02-19T06:03:12;101770.28;;;9.66;100.00
67697;BME280;54486;51.442;6.778;2023-02-19T06:05:38;101774.56;;;9.63;100.00
67697;BME280;54486;51.442;6.778;2023-02-19T06:08:06;101766.72;;;9.60;100.00
67697;BME280;54486;51.442;6.778;2023-02-19T06:10:33;101773.72;;;9.65;100.00
67697;BME280;54486;51.442;6.778;2023-02-19T06:13:00;101770.16;;;9.57;100.00
67697;BME280;54486;51.442;6.778;2023-02-19T06:15:27;101770.09;;;9.54;100.00
67697;BME280;54486;51.442;6.778;2023-02-19T06:17:54;101776.16;;;9.51;100.00
67697;BME280;54486;51.442;6.778;2023-02-19T06:20:24;101779.59;;;9.49;100.00
67697;BME280;54486;51.442;6.778;2023-02-19T06:22:52;101784.81;;;9.47;100.00
67697;BME280;54486;51.442;6.778;2023-02-19T06:25:19;101781.31;;;9.47;100.00
67697;BME280;54486;51.442;6.778;2023-02-19T06:27:46;101797.84;;;9.49;100.00
67697;BME280;54486;51.442;6.778;2023-02-19T06:30:13;101803.09;;;9.52;100.00
67697;BME280;54486;51.442;6.778;2023-02-19T06:32:40;101799.56;;;9.48;100.00
67697;BME280;54486;51.442;6.778;2023-02-19T06:35:07;101806.38;;;9.39;100.00
67697;BME280;54486;51.442;6.778;2023-02-19T06:37:34;101818.56;;;9.40;100.00
67697;BME280;54486;51.442;6.778;2023-02-19T06:40:01;101808.09;;;9.37;100.00
67697;BME280;54486;51.442;6.778;2023-02-19T06:42:31;101813.34;;;9.40;100.00
67697;BME280;54486;51.442;6.778;2023-02-19T06:44:58;101810.66;;;9.35;100.00
67697;BME280;54486;51.442;6.778;2023-02-19T06:47:25;101810.66;;;9.34;100.00
67697;BME280;54486;51.442;6.778;2023-02-19T06:49:52;101815.09;;;9.41;100.00
67697;BME280;54486;51.442;6.778;2023-02-19T06:52:20;101821.97;;;9.36;100.00
67697;BME280;54486;51.442;6.778;2023-02-19T06:54:47;101828.94;;;9.37;100.00
67697;BME280;54486;51.442;6.778;2023-02-19T06:57:14;101832.41;;;9.39;100.00
67697;BME280;54486;51.442;6.778;2023-02-19T06:59:42;101836.88;;;9.44;100.00
67697;BME280;54486;51.442;6.778;2023-02-19T07:02:10;101846.41;;;9.44;100.00
67697;BME280;54486;51.442;6.778;2023-02-19T07:04:37;101849.94;;;9.49;100.00
67697;BME280;54486;51.442;6.778;2023-02-19T07:07:04;101846.41;;;9.44;100.00
67697;BME280;54486;51.442;6.778;2023-02-19T07:09:31;101858.59;;;9.48;100.00
67697;BME280;54486;51.442;6.778;2023-02-19T07:11:58;101856.75;;;9.39;100.00
67697;BME280;54486;51.442;6.778;2023-02-19T07:14:26;101864.66;;;9.45;100.00
67697;BME280;54486;51.442;6.778;2023-02-19T07:16:53;101868.84;;;9.36;100.00
67697;BME280;54486;51.442;6.778;2023-02-19T07:19:20;101867.22;;;9.41;100.00
67697;BME280;54486;51.442;6.778;2023-02-19T07:21:47;101874.06;;;9.36;100.00
67697;BME280;54486;51.442;6.778;2023-02-19T07:24:14;101878.56;;;9.44;100.00
67697;BME280;54486;51.442;6.778;2023-02-19T07:26:42;101883.81;;;9.47;100.00
67697;BME280;54486;51.442;6.778;2023-02-19T07:29:10;101905.41;;;9.42;100.00
67697;BME280;54486;51.442;6.778;2023-02-19T07:31:37;101908.84;;;9.38;100.00
67697;BME280;54486;51.442;6.778;2023-02-19T07:34:06;101905.41;;;9.42;100.00
67697;BME280;54486;51.442;6.778;2023-02-19T07:36:34;101912.38;;;9.43;100.00
67697;BME280;54486;51.442;6.778;2023-02-19T07:39:02;101910.88;;;9.57;100.00
67697;BME280;54486;51.442;6.778;2023-02-19T07:41:29;101909.06;;;9.53;100.00
67697;BME280;54486;51.442;6.778;2023-02-19T07:43:57;101919.44;;;9.50;100.00
67697;BME280;54486;51.442;6.778;2023-02-19T07:46:24;101924.66;;;9.50;100.00
67697;BME280;54486;51.442;6.778;2023-02-19T07:48:52;101935.22;;;9.59;100.00
67697;BME280;54486;51.442;6.778;2023-02-19T07:51:19;101929.91;;;9.53;100.00
67697;BME280;54486;51.442;6.778;2023-02-19T07:53:49;101935.16;;;9.56;100.00
67697;BME280;54486;51.442;6.778;2023-02-19T07:56:17;101938.63;;;9.55;100.00
67697;BME280;54486;51.442;6.778;2023-02-19T07:58:44;101929.03;;;9.54;100.00
67697;BME280;54486;51.442;6.778;2023-02-19T08:01:15;101947.41;;;9.60;100.00
67697;BME280;54486;51.442;6.778;2023-02-19T08:03:42;101948.28;;;9.64;100.00
67697;BME280;54486;51.442;6.778;2023-02-19T08:06:09;101947.50;;;9.68;100.00
67697;BME280;54486;51.442;6.778;2023-02-19T08:08:39;101954.44;;;9.67;100.00
67697;BME280;54486;51.442;6.778;2023-02-19T08:11:08;101964.94;;;9.73;100.00
67697;BME280;54486;51.442;6.778;2023-02-19T08:13:54;101963.22;;;9.72;100.00
67697;BME280;54486;51.442;6.778;2023-02-19T08:16:21;101958.09;;;9.80;100.00
67697;BME280;54486;51.442;6.778;2023-02-19T08:19:07;101959.81;;;9.76;100.00
67697;BME280;54486;51.442;6.778;2023-02-19T08:21:35;101954.53;;;9.73;100.00
67697;BME280;54486;51.442;6.778;2023-02-19T08:24:01;101960.63;;;9.74;100.00
67697;BME280;54486;51.442;6.778;2023-02-19T08:26:29;101970.25;;;9.78;100.00
67697;BME280;54486;51.442;6.778;2023-02-19T08:28:56;101978.91;;;9.75;100.00
67697;BME280;54486;51.442;6.778;2023-02-19T08:31:25;101975.44;;;9.76;100.00
67697;BME280;54486;51.442;6.778;2023-02-19T08:33:53;101972.88;;;9.79;100.00
67697;BME280;54486;51.442;6.778;2023-02-19T08:36:20;101966.75;;;9.77;100.00
67697;BME280;54486;51.442;6.778;2023-02-19T08:38:47;101984.19;;;9.81;100.00
67697;BME280;54486;51.442;6.778;2023-02-19T08:41:14;101978.06;;;9.78;100.00
67697;BME280;54486;51.442;6.778;2023-02-19T08:47:13;101982.53;;;9.85;100.00
67697;BME280;54486;51.442;6.778;2023-02-19T08:49:40;101986.09;;;9.91;100.00
67697;BME280;54486;51.442;6.778;2023-02-19T08:52:07;101987.91;;;9.95;100.00
67697;BME280;54486;51.442;6.778;2023-02-19T08:54:36;101988.00;;;10.03;100.00
67697;BME280;54486;51.442;6.778;2023-02-19T08:57:03;101997.63;;;10.08;100.00
67697;BME280;54486;51.442;6.778;2023-02-19T08:59:34;101991.53;;;10.06;100.00
67697;BME280;54486;51.442;6.778;2023-02-19T09:02:01;101989.00;;;10.11;100.00
67697;BME280;54486;51.442;6.778;2023-02-19T09:04:29;101981.28;;;10.19;100.00
67697;BME280;54486;51.442;6.778;2023-02-19T09:06:58;101996.16;;;10.24;100.00
67697;BME280;54486;51.442;6.778;2023-02-19T09:09:28;102010.06;;;10.25;100.00
67697;BME280;54486;51.442;6.778;2023-02-19T09:11:59;102012.66;;;10.25;100.00
67697;BME280;54486;51.442;6.778;2023-02-19T09:14:30;102016.16;;;10.24;100.00
67697;BME280;54486;51.442;6.778;2023-02-19T09:17:00;102016.22;;;10.30;100.00
67697;BME280;54486;51.442;6.778;2023-02-19T09:19:30;102023.28;;;10.37;100.00
67697;BME280;54486;51.442;6.778;2023-02-19T09:21:57;102022.25;;;10.24;100.00
67697;BME280;54486;51.442;6.778;2023-02-19T09:24:28;102034.34;;;10.18;100.00
67697;BME280;54486;51.442;6.778;2023-02-19T09:26:55;102038.75;;;10.25;100.00
67697;BME280;54486;51.442;6.778;2023-02-19T09:32:47;102045.69;;;10.23;100.00
67697;BME280;54486;51.442;6.778;2023-02-19T09:35:14;102045.69;;;10.23;100.00
67697;BME280;54486;51.442;6.778;2023-02-19T09:37:41;102043.72;;;10.09;100.00
67697;BME280;54486;51.442;6.778;2023-02-19T09:40:08;102041.16;;;10.13;100.00
67697;BME280;54486;51.442;6.778;2023-02-19T09:42:38;102038.47;;;10.06;100.00
67697;BME280;54486;51.442;6.778;2023-02-19T09:45:09;102043.88;;;10.19;100.00
67697;BME280;54486;51.442;6.778;2023-02-19T09:47:42;102043.72;;;10.09;100.00
67697;BME280;54486;51.442;6.778;2023-02-19T09:50:11;102054.03;;;10.00;100.00
67697;BME280;54486;51.442;6.778;2023-02-19T09:52:46;102061.03;;;10.04;100.00
67697;BME280;54486;51.442;6.778;2023-02-19T09:55:33;102061.09;;;10.07;100.00
67697;BME280;54486;51.442;6.778;2023-02-19T10:00:53;102077.84;;;10.20;100.00
67697;BME280;54486;51.442;6.778;2023-02-19T10:03:33;102090.94;;;10.25;100.00
67697;BME280;54486;51.442;6.778;2023-02-19T10:06:19;102088.34;;;10.26;100.00
67697;BME280;54486;51.442;6.778;2023-02-19T10:08:54;102104.81;;;10.21;100.00
67697;BME280;54486;51.442;6.778;2023-02-19T10:11:24;102108.28;;;10.23;100.00
67697;BME280;54486;51.442;6.778;2023-02-19T10:14:03;102120.53;;;10.27;100.00
67697;BME280;54486;51.442;6.778;2023-02-19T10:16:38;102115.50;;;10.39;100.00
67697;BME280;54486;51.442;6.778;2023-02-19T10:19:09;102099.72;;;10.30;100.00
67697;BME280;54486;51.442;6.778;2023-02-19T10:21:38;102103.16;;;10.29;100.00
67697;BME280;54486;51.442;6.778;2023-02-19T10:24:13;102125.84;;;10.33;100.00
67697;BME280;54486;51.442;6.778;2023-02-19T10:26:48;102131.06;;;10.33;99.86
67697;BME280;54486;51.442;6.778;2023-02-19T10:29:15;102126.72;;;10.33;99.25
67697;BME280;54486;51.442;6.778;2023-02-19T10:31:42;102133.72;;;10.36;98.66
67697;BME280;54486;51.442;6.778;2023-02-19T10:34:17;102142.56;;;10.47;98.19
67697;BME280;54486;51.442;6.778;2023-02-19T10:36:46;102142.75;;;10.56;97.66
67697;BME280;54486;51.442;6.778;2023-02-19T10:41:48;102141.94;;;10.63;96.46
67697;BME280;54486;51.442;6.778;2023-02-19T10:44:26;102145.69;;;10.80;96.75
67697;BME280;54486;51.442;6.778;2023-02-19T10:46:55;102152.75;;;10.87;96.86
67697;BME280;54486;51.442;6.778;2023-02-19T10:49:25;102157.09;;;10.88;96.89
67697;BME280;54486;51.442;6.778;2023-02-19T10:51:54;102159.81;;;10.94;96.08
67697;BME280;54486;51.442;6.778;2023-02-19T10:54:26;102153.09;;;11.14;94.30
67697;BME280;54486;51.442;6.778;2023-02-19T10:59:50;102155.22;;;10.78;95.47
67697;BME280;54486;51.442;6.778;2023-02-19T11:02:19;102155.25;;;10.80;96.56
67697;BME280;54486;51.442;6.778;2023-02-19T11:07:32;102173.72;;;10.93;95.17
67697;BME280;54486;51.442;6.778;2023-02-19T11:09:59;102184.09;;;10.87;95.62
67697;BME280;54486;51.442;6.778;2023-02-19T11:12:29;102186.47;;;10.74;96.84
67697;BME280;54486;51.442;6.778;2023-02-19T11:15:02;102181.63;;;10.41;98.36
67697;BME280;54486;51.442;6.778;2023-02-19T11:17:39;102180.03;;;10.49;99.15
67697;BME280;54486;51.442;6.778;2023-02-19T11:20:07;102173.09;;;10.49;100.00
67697;BME280;54486;51.442;6.778;2023-02-19T11:22:42;102180.06;;;10.52;98.30
67697;BME280;54486;51.442;6.778;2023-02-19T11:35:44;102170.84;;;10.75;93.10
67697;BME280;54486;51.442;6.778;2023-02-19T11:38:12;102168.25;;;10.75;94.47
67697;BME280;54486;51.442;6.778;2023-02-19T11:43:09;102164.06;;;10.88;93.66
67697;BME280;54486;51.442;6.778;2023-02-19T11:45:53;102166.41;;;10.68;93.29
67697;BME280;54486;51.442;6.778;2023-02-19T11:48:34;102164.31;;;10.46;94.16
67697;BME280;54486;51.442;6.778;2023-02-19T11:51:13;102165.06;;;10.39;96.39
67697;BME280;54486;51.442;6.778;2023-02-19T11:53:45;102161.34;;;10.23;98.15
67697;BME280;54486;51.442;6.778;2023-02-19T11:56:20;102162.19;;;10.21;98.65
67697;BME280;54486;51.442;6.778;2023-02-19T11:58:54;102157.81;;;10.21;98.95
67697;BME280;54486;51.442;6.778;2023-02-19T12:01:28;102149.91;;;10.14;100.00
67697;BME280;54486;51.442;6.778;2023-02-19T12:06:53;102170.22;;;10.33;100.00
67697;BME280;54486;51.442;6.778;2023-02-19T12:09:33;102172.88;;;10.36;100.00
67697;BME280;54486;51.442;6.778;2023-02-19T12:20:08;102201.88;;;10.04;100.00
67697;BME280;54486;51.442;6.778;2023-02-19T12:22:38;102206.84;;;9.92;100.00
67697;BME280;54486;51.442;6.778;2023-02-19T12:28:28;102203.06;;;9.75;100.00
67697;BME280;54486;51.442;6.778;2023-02-19T12:35:42;102196.19;;;9.79;98.80
67697;BME280;54486;51.442;6.778;2023-02-19T12:40:48;102198.34;;;10.02;96.67
67697;BME280;54486;51.442;6.778;2023-02-19T12:43:19;102194.94;;;10.06;95.55
67697;BME280;54486;51.442;6.778;2023-02-19T12:45:54;102191.63;;;10.14;95.99
67697;BME280;54486;51.442;6.778;2023-02-19T12:48:30;102193.69;;;10.33;94.66
67697;BME280;54486;51.442;6.778;2023-02-19T12:51:06;102198.06;;;10.34;94.78
67697;BME280;54486;51.442;6.778;2023-02-19T12:56:32;102198.16;;;10.41;94.20
67697;BME280;54486;51.442;6.778;2023-02-19T12:59:03;102195.69;;;10.49;95.79
67697;BME280;54486;51.442;6.778;2023-02-19T13:01:33;102192.38;;;10.59;94.99
67697;BME280;54486;51.442;6.778;2023-02-19T13:04:13;102211.34;;;10.49;94.99
67697;BME280;54486;51.442;6.778;2023-02-19T13:06:45;102200.72;;;10.38;95.14
67697;BME280;54486;51.442;6.778;2023-02-19T13:09:27;102200.66;;;10.34;95.39
67697;BME280;54486;51.442;6.778;2023-02-19T13:14:44;102211.09;;;10.34;94.96
67697;BME280;54486;51.442;6.778;2023-02-19T13:17:17;102206.69;;;10.30;94.22
67697;BME280;54486;51.442;6.778;2023-02-19T13:19:47;102210.97;;;10.28;93.93
67697;BME280;54486;51.442;6.778;2023-02-19T13:22:54;102202.31;;;10.29;93.91
67697;BME280;54486;51.442;6.778;2023-02-19T13:25:38;102202.50;;;10.41;95.16
67697;BME280;54486;51.442;6.778;2023-02-19T13:33:39;102205.75;;;10.28;95.26
67697;BME280;54486;51.442;6.778;2023-02-19T13:38:40;102216.44;;;10.40;95.98
67697;BME280;54486;51.442;6.778;2023-02-19T13:41:48;102217.38;;;10.45;95.17
67697;BME280;54486;51.442;6.778;2023-02-19T13:44:06;102213.31;;;10.62;93.90
67697;BME280;54486;51.442;6.778;2023-02-19T13:46:35;102220.16;;;10.55;94.79
67697;BME280;54486;51.442;6.778;2023-02-19T13:51:50;102233.22;;;10.57;93.55
67697;BME280;54486;51.442;6.778;2023-02-19T13:59:37;102245.28;;;10.02;99.46
67697;BME280;54486;51.442;6.778;2023-02-19T14:02:08;102257.09;;;9.82;100.00
67697;BME280;54486;51.442;6.778;2023-02-19T14:14:47;102271.97;;;9.46;100.00
67697;BME280;54486;51.442;6.778;2023-02-19T14:30:26;102275.53;;;9.51;100.00
67697;BME280;54486;51.442;6.778;2023-02-19T14:32:54;102285.25;;;9.58;100.00
67697;BME280;54486;51.442;6.778;2023-02-19T14:35:43;102278.31;;;9.58;100.00
67697;BME280;54486;51.442;6.778;2023-02-19T14:38:15;102296.59;;;9.60;100.00
67697;BME280;54486;51.442;6.778;2023-02-19T14:40:44;102285.38;;;9.64;100.00
67697;BME280;54486;51.442;6.778;2023-02-19T14:43:16;102281.81;;;9.59;100.00
67697;BME280;54486;51.442;6.778;2023-02-19T14:45:47;102281.69;;;9.54;100.00
67697;BME280;54486;51.442;6.778;2023-02-19T14:48:17;102284.47;;;9.62;100.00
67697;BME280;54486;51.442;6.778;2023-02-19T14:50:47;102289.69;;;9.62;100.00
67697;BME280;54486;51.442;6.778;2023-02-19T14:53:15;102289.75;;;9.65;100.00
67697;BME280;54486;51.442;6.778;2023-02-19T14:55:44;102284.53;;;9.65;100.00
67697;BME280;54486;51.442;6.778;2023-02-19T14:58:14;102280.75;;;9.51;100.00
67697;BME280;54486;51.442;6.778;2023-02-19T15:00:43;102271.25;;;9.53;100.00
67697;BME280;54486;51.442;6.778;2023-02-19T15:03:28;102277.50;;;9.61;100.00
67697;BME280;54486;51.442;6.778;2023-02-19T15:05:56;102269.66;;;9.61;100.00
67697;BME280;54486;51.442;6.778;2023-02-19T15:08:26;102265.50;;;9.69;100.00
67697;BME280;54486;51.442;6.778;2023-02-19T15:10:57;102259.59;;;9.78;100.00
67697;BME280;54486;51.442;6.778;2023-02-19T15:13:26;102253.47;;;9.76;100.00